sensor_id;sensor_type;location;lat;lon;timestamp;temperature;humidity
6954;DHT22;3516;47.980;8.808;2022-08-21T07:46:08;24.80;95.20
6954;DHT22;3516;47.980;8.808;2022-08-21T07:48:34;24.80;95.20
6954;DHT22;3516;47.980;8.808;2022-08-21T07:51:02;24.80;95.20
6954;DHT22;3516;47.980;8.808;2022-08-21T07:53:30;24.80;95.20
6954;DHT22;3516;47.980;8.808;2022-08-21T07:55:57;24.80;95.10
6954;DHT22;3516;47.980;8.808;2022-08-21T07:58:24;24.80;94.90
6954;DHT22;3516;47.980;8.808;2022-08-21T08:00:51;24.70;94.70
6954;DHT22;3516;47.980;8.808;2022-08-21T08:03:19;24.70;94.60
6954;DHT22;3516;47.980;8.808;2022-08-21T08:05:45;24.70;94.60
6954;DHT22;3516;47.980;8.808;2022-08-21T08:08:12;24.70;94.50
6954;DHT22;3516;47.980;8.808;2022-08-21T08:10:39;24.70;94.30
6954;DHT22;3516;47.980;8.808;2022-08-21T08:13:05;24.70;94.20
6954;DHT22;3516;47.980;8.808;2022-08-21T08:15:32;24.70;94.00
6954;DHT22;3516;47.980;8.808;2022-08-21T08:17:59;24.70;93.80
6954;DHT22;3516;47.980;8.808;2022-08-21T08:20:27;24.70;93.60
6954;DHT22;3516;47.980;8.808;2022-08-21T08:22:54;24.60;93.30
6954;DHT22;3516;47.980;8.808;2022-08-21T08:25:21;24.60;93.40
6954;DHT22;3516;47.980;8.808;2022-08-21T08:27:49;24.60;92.90
6954;DHT22;3516;47.980;8.808;2022-08-21T08:30:17;24.60;92.90
6954;DHT22;3516;47.980;8.808;2022-08-21T08:32:44;24.60;92.60
6954;DHT22;3516;47.980;8.808;2022-08-21T08:35:11;24.60;92.30
6954;DHT22;3516;47.980;8.808;2022-08-21T08:37:39;24.60;92.10
6954;DHT22;3516;47.980;8.808;2022-08-21T08:40:07;24.60;92.00
6954;DHT22;3516;47.980;8.808;2022-08-21T08:42:36;24.60;91.80
6954;DHT22;3516;47.980;8.808;2022-08-21T08:45:04;24.60;91.70
6954;DHT22;3516;47.980;8.808;2022-08-21T08:47:32;24.60;91.50
6954;DHT22;3516;47.980;8.808;2022-08-21T08:50:02;24.60;91.30
6954;DHT22;3516;47.980;8.808;2022-08-21T08:52:30;24.60;91.10
6954;DHT22;3516;47.980;8.808;2022-08-21T08:55:01;24.60;91.00
6954;DHT22;3516;47.980;8.808;2022-08-21T08:57:28;24.60;90.80
6954;DHT22;3516;47.980;8.808;2022-08-21T08:59:56;24.60;90.60
6954;DHT22;3516;47.980;8.808;2022-08-21T09:02:23;24.60;90.50
6954;DHT22;3516;47.980;8.808;2022-08-21T09:04:52;24.60;90.30
6954;DHT22;3516;47.980;8.808;2022-08-21T09:07:22;24.60;90.00
6954;DHT22;3516;47.980;8.808;2022-08-21T09:09:55;24.60;90.00
6954;DHT22;3516;47.980;8.808;2022-08-21T09:12:30;24.60;90.00
6954;DHT22;3516;47.980;8.808;2022-08-21T09:15:02;24.60;89.70
6954;DHT22;3516;47.980;8.808;2022-08-21T09:17:34;24.60;89.30
6954;DHT22;3516;47.980;8.808;2022-08-21T09:20:07;24.60;88.90
6954;DHT22;3516;47.980;8.808;2022-08-21T09:22:38;24.60;88.60
6954;DHT22;3516;47.980;8.808;2022-08-21T09:25:10;24.60;88.30
6954;DHT22;3516;47.980;8.808;2022-08-21T09:27:39;24.60;87.90
6954;DHT22;3516;47.980;8.808;2022-08-21T09:30:07;24.60;87.60
6954;DHT22;3516;47.980;8.808;2022-08-21T09:32:35;24.60;87.30
6954;DHT22;3516;47.980;8.808;2022-08-21T09:35:04;24.60;86.90
6954;DHT22;3516;47.980;8.808;2022-08-21T09:37:32;24.60;86.60
6954;DHT22;3516;47.980;8.808;2022-08-21T09:39:59;24.60;86.30
6954;DHT22;3516;47.980;8.808;2022-08-21T09:42:27;24.60;86.10
6954;DHT22;3516;47.980;8.808;2022-08-21T09:45:07;24.60;85.80
6954;DHT22;3516;47.980;8.808;2022-08-21T09:47:35;24.60;85.40
6954;DHT22;3516;47.980;8.808;2022-08-21T09:50:12;24.60;85.40
6954;DHT22;3516;47.980;8.808;2022-08-21T09:52:43;24.60;84.70
6954;DHT22;3516;47.980;8.808;2022-08-21T09:55:14;24.60;84.50
6954;DHT22;3516;47.980;8.808;2022-08-21T09:58:02;24.60;84.40
6954;DHT22;3516;47.980;8.808;2022-08-21T10:00:30;24.60;84.40
6954;DHT22;3516;47.980;8.808;2022-08-21T10:03:07;24.60;84.00
6954;DHT22;3516;47.980;8.808;2022-08-21T10:05:34;24.60;83.70
6954;DHT22;3516;47.980;8.808;2022-08-21T10:08:01;24.60;83.40
6954;DHT22;3516;47.980;8.808;2022-08-21T10:10:30;24.60;83.20
6954;DHT22;3516;47.980;8.808;2022-08-21T10:12:58;24.60;82.90
6954;DHT22;3516;47.980;8.808;2022-08-21T10:15:32;24.60;82.60
6954;DHT22;3516;47.980;8.808;2022-08-21T10:18:03;24.60;82.30
6954;DHT22;3516;47.980;8.808;2022-08-21T10:20:33;24.60;82.00
6954;DHT22;3516;47.980;8.808;2022-08-21T10:23:06;24.60;81.80
6954;DHT22;3516;47.980;8.808;2022-08-21T10:25:35;24.60;81.60
6954;DHT22;3516;47.980;8.808;2022-08-21T10:28:05;24.70;81.50
6954;DHT22;3516;47.980;8.808;2022-08-21T10:30:37;24.60;81.10
6954;DHT22;3516;47.980;8.808;2022-08-21T10:33:09;24.60;80.90
6954;DHT22;3516;47.980;8.808;2022-08-21T10:35:40;24.60;80.70
6954;DHT22;3516;47.980;8.808;2022-08-21T10:40:50;24.70;80.40
6954;DHT22;3516;47.980;8.808;2022-08-21T10:43:23;24.70;80.10
6954;DHT22;3516;47.980;8.808;2022-08-21T10:45:57;24.70;80.00
6954;DHT22;3516;47.980;8.808;2022-08-21T10:48:29;24.70;79.80
6954;DHT22;3516;47.980;8.808;2022-08-21T10:50:59;24.70;79.50
6954;DHT22;3516;47.980;8.808;2022-08-21T10:53:34;24.70;79.20
6954;DHT22;3516;47.980;8.808;2022-08-21T10:56:02;24.70;79.00
6954;DHT22;3516;47.980;8.808;2022-08-21T10:58:33;24.70;78.70
6954;DHT22;3516;47.980;8.808;2022-08-21T11:01:07;24.70;78.70
6954;DHT22;3516;47.980;8.808;2022-08-21T11:03:35;24.70;78.70
6954;DHT22;3516;47.980;8.808;2022-08-21T11:06:06;24.70;78.70
6954;DHT22;3516;47.980;8.808;2022-08-21T11:08:37;24.70;78.50
6954;DHT22;3516;47.980;8.808;2022-08-21T11:11:05;24.70;78.20
6954;DHT22;3516;47.980;8.808;2022-08-21T11:13:36;24.70;78.00
6954;DHT22;3516;47.980;8.808;2022-08-21T11:16:07;24.70;77.80
6954;DHT22;3516;47.980;8.808;2022-08-21T11:18:37;24.70;77.50
6954;DHT22;3516;47.980;8.808;2022-08-21T11:21:12;24.70;77.30
6954;DHT22;3516;47.980;8.808;2022-08-21T11:23:41;24.70;77.10
6954;DHT22;3516;47.980;8.808;2022-08-21T11:26:11;24.70;76.90
6954;DHT22;3516;47.980;8.808;2022-08-21T11:28:42;24.70;76.70
6954;DHT22;3516;47.980;8.808;2022-08-21T11:31:16;24.70;76.50
6954;DHT22;3516;47.980;8.808;2022-08-21T11:33:48;24.70;76.40
6954;DHT22;3516;47.980;8.808;2022-08-21T11:36:20;24.70;76.20
6954;DHT22;3516;47.980;8.808;2022-08-21T11:38:50;24.70;76.00
6954;DHT22;3516;47.980;8.808;2022-08-21T11:41:22;24.70;75.80
6954;DHT22;3516;47.980;8.808;2022-08-21T11:43:52;24.70;75.60
6954;DHT22;3516;47.980;8.808;2022-08-21T15:24:25;25.00;64.80
6954;DHT22;3516;47.980;8.808;2022-08-21T15:26:53;25.00;64.80
6954;DHT22;3516;47.980;8.808;2022-08-21T15:29:20;25.00;64.80
6954;DHT22;3516;47.980;8.808;2022-08-21T15:31:51;25.00;64.70
6954;DHT22;3516;47.980;8.808;2022-08-21T15:34:18;25.00;64.70
6954;DHT22;3516;47.980;8.808;2022-08-21T15:36:45;25.00;64.70
6954;DHT22;3516;47.980;8.808;2022-08-21T15:39:12;25.00;64.60
6954;DHT22;3516;47.980;8.808;2022-08-21T15:41:40;25.00;64.50
6954;DHT22;3516;47.980;8.808;2022-08-21T15:44:08;25.00;64.40
6954;DHT22;3516;47.980;8.808;2022-08-21T15:46:36;25.00;64.40
6954;DHT22;3516;47.980;8.808;2022-08-21T15:49:03;25.00;64.30
6954;DHT22;3516;47.980;8.808;2022-08-21T15:51:30;24.90;64.20
6954;DHT22;3516;47.980;8.808;2022-08-21T15:53:56;24.90;64.10
6954;DHT22;3516;47.980;8.808;2022-08-21T15:56:24;25.00;64.10
6954;DHT22;3516;47.980;8.808;2022-08-21T15:58:53;24.90;64.00
6954;DHT22;3516;47.980;8.808;2022-08-21T16:01:23;24.90;63.90
6954;DHT22;3516;47.980;8.808;2022-08-21T16:03:50;24.90;63.90
6954;DHT22;3516;47.980;8.808;2022-08-21T16:06:19;24.90;63.80
6954;DHT22;3516;47.980;8.808;2022-08-21T16:08:45;24.90;63.70
6954;DHT22;3516;47.980;8.808;2022-08-21T16:11:12;24.90;63.60
6954;DHT22;3516;47.980;8.808;2022-08-21T16:13:40;24.90;63.60
6954;DHT22;3516;47.980;8.808;2022-08-21T16:16:10;24.90;63.50
6954;DHT22;3516;47.980;8.808;2022-08-21T16:18:37;24.90;63.40
6954;DHT22;3516;47.980;8.808;2022-08-21T16:21:04;24.90;63.40
6954;DHT22;3516;47.980;8.808;2022-08-21T16:23:32;24.90;63.40
6954;DHT22;3516;47.980;8.808;2022-08-21T16:25:59;24.90;63.30
6954;DHT22;3516;47.980;8.808;2022-08-21T16:28:26;24.90;63.20
6954;DHT22;3516;47.980;8.808;2022-08-21T16:30:53;24.90;63.90
6954;DHT22;3516;47.980;8.808;2022-08-21T16:33:22;24.90;63.10
6954;DHT22;3516;47.980;8.808;2022-08-21T16:35:50;24.90;63.00
6954;DHT22;3516;47.980;8.808;2022-08-21T16:38:17;24.90;63.10
6954;DHT22;3516;47.980;8.808;2022-08-21T16:40:44;24.90;63.20
6954;DHT22;3516;47.980;8.808;2022-08-21T16:43:11;24.90;63.40
6954;DHT22;3516;47.980;8.808;2022-08-21T16:45:37;24.90;63.50
6954;DHT22;3516;47.980;8.808;2022-08-21T16:48:04;24.90;63.70
6954;DHT22;3516;47.980;8.808;2022-08-21T16:50:35;24.90;63.80
6954;DHT22;3516;47.980;8.808;2022-08-21T16:53:02;25.00;63.90
6954;DHT22;3516;47.980;8.808;2022-08-21T16:55:29;24.90;63.90
6954;DHT22;3516;47.980;8.808;2022-08-21T16:57:55;24.90;64.00
6954;DHT22;3516;47.980;8.808;2022-08-21T17:00:23;24.90;64.20
6954;DHT22;3516;47.980;8.808;2022-08-21T17:02:51;24.90;64.40
6954;DHT22;3516;47.980;8.808;2022-08-21T17:05:19;24.90;64.60
6954;DHT22;3516;47.980;8.808;2022-08-21T17:07:47;25.00;64.80
6954;DHT22;3516;47.980;8.808;2022-08-21T17:10:15;25.00;65.00
6954;DHT22;3516;47.980;8.808;2022-08-21T17:12:43;25.00;65.90
6954;DHT22;3516;47.980;8.808;2022-08-21T17:15:14;25.00;65.30
6954;DHT22;3516;47.980;8.808;2022-08-21T17:17:42;25.00;65.50
6954;DHT22;3516;47.980;8.808;2022-08-21T17:20:09;25.00;65.70
6954;DHT22;3516;47.980;8.808;2022-08-21T17:22:36;25.00;65.90
6954;DHT22;3516;47.980;8.808;2022-08-21T17:25:04;25.00;66.00
6954;DHT22;3516;47.980;8.808;2022-08-21T17:27:31;25.00;66.30
6954;DHT22;3516;47.980;8.808;2022-08-21T17:29:58;25.00;66.50
6954;DHT22;3516;47.980;8.808;2022-08-21T17:32:26;25.00;66.80
6954;DHT22;3516;47.980;8.808;2022-08-21T17:34:52;25.00;67.10
6954;DHT22;3516;47.980;8.808;2022-08-21T17:37:19;25.00;67.10
6954;DHT22;3516;47.980;8.808;2022-08-21T17:39:46;25.00;67.10
6954;DHT22;3516;47.980;8.808;2022-08-21T17:42:14;25.00;67.10
6954;DHT22;3516;47.980;8.808;2022-08-21T17:44:41;25.00;67.20
6954;DHT22;3516;47.980;8.808;2022-08-21T17:47:08;25.00;67.50
6954;DHT22;3516;47.980;8.808;2022-08-21T17:49:35;25.00;67.70
6954;DHT22;3516;47.980;8.808;2022-08-21T17:52:02;25.00;67.80
6954;DHT22;3516;47.980;8.808;2022-08-21T17:54:29;24.90;67.90
6954;DHT22;3516;47.980;8.808;2022-08-21T17:56:56;24.90;68.00
6954;DHT22;3516;47.980;8.808;2022-08-21T17:59:24;24.90;68.20
6954;DHT22;3516;47.980;8.808;2022-08-21T18:01:51;24.90;68.30
6954;DHT22;3516;47.980;8.808;2022-08-21T18:04:22;24.90;68.40
6954;DHT22;3516;47.980;8.808;2022-08-21T18:06:48;24.90;68.50
6954;DHT22;3516;47.980;8.808;2022-08-21T18:09:15;24.90;68.60
6954;DHT22;3516;47.980;8.808;2022-08-21T18:11:42;24.90;68.80
6954;DHT22;3516;47.980;8.808;2022-08-21T18:14:09;24.90;68.90
6954;DHT22;3516;47.980;8.808;2022-08-21T18:16:38;24.90;69.10
6954;DHT22;3516;47.980;8.808;2022-08-21T18:19:07;24.90;69.90
6954;DHT22;3516;47.980;8.808;2022-08-21T18:21:34;24.90;69.30
6954;DHT22;3516;47.980;8.808;2022-08-21T18:24:01;24.90;69.30
6954;DHT22;3516;47.980;8.808;2022-08-21T18:26:28;24.90;69.30
6954;DHT22;3516;47.980;8.808;2022-08-21T18:28:56;24.80;69.30
6954;DHT22;3516;47.980;8.808;2022-08-21T18:31:25;24.80;69.40
6954;DHT22;3516;47.980;8.808;2022-08-21T18:33:54;24.80;69.40
6954;DHT22;3516;47.980;8.808;2022-08-21T18:36:21;24.80;69.50
6954;DHT22;3516;47.980;8.808;2022-08-21T18:38:47;24.80;69.50
6954;DHT22;3516;47.980;8.808;2022-08-21T18:41:16;24.80;69.50
6954;DHT22;3516;47.980;8.808;2022-08-21T18:43:43;24.80;69.90
6954;DHT22;3516;47.980;8.808;2022-08-21T18:46:09;24.80;69.50
6954;DHT22;3516;47.980;8.808;2022-08-21T18:48:36;24.80;69.60
6954;DHT22;3516;47.980;8.808;2022-08-21T18:51:04;24.80;69.50
6954;DHT22;3516;47.980;8.808;2022-08-21T18:53:31;24.80;69.50
6954;DHT22;3516;47.980;8.808;2022-08-21T18:55:58;24.70;69.40
6954;DHT22;3516;47.980;8.808;2022-08-21T18:58:25;24.70;69.40
6954;DHT22;3516;47.980;8.808;2022-08-21T19:00:53;24.70;69.50
6954;DHT22;3516;47.980;8.808;2022-08-21T19:03:20;24.70;69.40
6954;DHT22;3516;47.980;8.808;2022-08-21T19:05:47;24.70;69.50
6954;DHT22;3516;47.980;8.808;2022-08-21T19:08:16;24.70;69.40
6954;DHT22;3516;47.980;8.808;2022-08-21T19:10:44;24.70;69.40
6954;DHT22;3516;47.980;8.808;2022-08-21T19:13:11;24.70;69.50
6954;DHT22;3516;47.980;8.808;2022-08-21T19:15:40;24.70;69.40
6954;DHT22;3516;47.980;8.808;2022-08-21T19:18:09;24.70;69.40
6954;DHT22;3516;47.980;8.808;2022-08-21T19:20:36;24.70;69.40
6954;DHT22;3516;47.980;8.808;2022-08-21T19:23:07;24.70;69.40
6954;DHT22;3516;47.980;8.808;2022-08-21T19:25:35;24.70;69.50
6954;DHT22;3516;47.980;8.808;2022-08-21T19:28:03;24.70;69.40
6954;DHT22;3516;47.980;8.808;2022-08-21T19:30:33;24.70;69.50
6954;DHT22;3516;47.980;8.808;2022-08-21T19:33:02;24.70;69.40
6954;DHT22;3516;47.980;8.808;2022-08-21T19:35:29;24.70;69.40
6954;DHT22;3516;47.980;8.808;2022-08-21T19:37:55;24.70;69.40
6954;DHT22;3516;47.980;8.808;2022-08-21T19:40:22;24.70;69.40
6954;DHT22;3516;47.980;8.808;2022-08-21T19:42:50;24.70;69.30
6954;DHT22;3516;47.980;8.808;2022-08-21T19:45:17;24.70;69.40
6954;DHT22;3516;47.980;8.808;2022-08-21T19:47:44;24.70;69.30
6954;DHT22;3516;47.980;8.808;2022-08-21T19:50:11;24.70;69.30
6954;DHT22;3516;47.980;8.808;2022-08-21T19:52:38;24.70;69.30
6954;DHT22;3516;47.980;8.808;2022-08-21T19:55:05;24.70;69.20
6954;DHT22;3516;47.980;8.808;2022-08-21T19:57:33;24.70;69.20
6954;DHT22;3516;47.980;8.808;2022-08-21T20:00:02;24.70;69.20
6954;DHT22;3516;47.980;8.808;2022-08-21T20:02:29;24.70;69.20
6954;DHT22;3516;47.980;8.808;2022-08-21T20:04:56;24.70;69.10
6954;DHT22;3516;47.980;8.808;2022-08-21T20:07:22;24.70;69.10
6954;DHT22;3516;47.980;8.808;2022-08-21T20:09:49;24.70;69.10
6954;DHT22;3516;47.980;8.808;2022-08-21T20:12:16;24.70;69.10
6954;DHT22;3516;47.980;8.808;2022-08-21T20:14:45;24.70;69.10
6954;DHT22;3516;47.980;8.808;2022-08-21T20:17:16;24.70;69.10
6954;DHT22;3516;47.980;8.808;2022-08-21T20:19:44;24.70;69.10
6954;DHT22;3516;47.980;8.808;2022-08-21T20:22:11;24.70;69.00
6954;DHT22;3516;47.980;8.808;2022-08-21T20:24:38;24.70;68.90
6954;DHT22;3516;47.980;8.808;2022-08-21T20:27:06;24.70;68.90
6954;DHT22;3516;47.980;8.808;2022-08-21T20:29:34;24.70;69.00
6954;DHT22;3516;47.980;8.808;2022-08-21T20:32:01;24.70;69.00
6954;DHT22;3516;47.980;8.808;2022-08-21T20:34:30;24.70;69.00
6954;DHT22;3516;47.980;8.808;2022-08-21T20:36:57;24.70;69.00
6954;DHT22;3516;47.980;8.808;2022-08-21T20:39:24;24.70;69.00
6954;DHT22;3516;47.980;8.808;2022-08-21T20:41:50;24.70;69.00
6954;DHT22;3516;47.980;8.808;2022-08-21T20:44:17;24.70;69.00
6954;DHT22;3516;47.980;8.808;2022-08-21T20:46:44;24.70;69.10
6954;DHT22;3516;47.980;8.808;2022-08-21T20:49:13;24.70;69.10
6954;DHT22;3516;47.980;8.808;2022-08-21T20:51:44;24.70;69.10
6954;DHT22;3516;47.980;8.808;2022-08-21T20:54:13;24.70;69.20
6954;DHT22;3516;47.980;8.808;2022-08-21T20:56:45;24.70;69.20
6954;DHT22;3516;47.980;8.808;2022-08-21T20:59:18;24.70;69.30
6954;DHT22;3516;47.980;8.808;2022-08-21T21:01:48;24.70;69.30
6954;DHT22;3516;47.980;8.808;2022-08-21T21:04:20;24.70;69.40
6954;DHT22;3516;47.980;8.808;2022-08-21T21:06:50;24.70;69.40
6954;DHT22;3516;47.980;8.808;2022-08-21T21:09:18;24.70;69.50
6954;DHT22;3516;47.980;8.808;2022-08-21T21:11:48;24.70;69.50
6954;DHT22;3516;47.980;8.808;2022-08-21T21:14:16;24.70;69.50
6954;DHT22;3516;47.980;8.808;2022-08-21T21:16:48;24.70;69.60
6954;DHT22;3516;47.980;8.808;2022-08-21T21:19:18;24.70;69.60
6954;DHT22;3516;47.980;8.808;2022-08-21T21:21:46;24.70;69.70
6954;DHT22;3516;47.980;8.808;2022-08-21T21:24:17;24.70;69.80
6954;DHT22;3516;47.980;8.808;2022-08-21T21:26:47;24.70;69.80
6954;DHT22;3516;47.980;8.808;2022-08-21T21:29:16;24.70;69.90
6954;DHT22;3516;47.980;8.808;2022-08-21T21:31:44;24.70;70.00
6954;DHT22;3516;47.980;8.808;2022-08-21T21:34:11;24.70;70.00
6954;DHT22;3516;47.980;8.808;2022-08-21T21:36:41;24.70;70.10
6954;DHT22;3516;47.980;8.808;2022-08-21T21:39:09;24.70;70.20
6954;DHT22;3516;47.980;8.808;2022-08-21T21:41:39;24.70;70.20
6954;DHT22;3516;47.980;8.808;2022-08-21T21:46:54;24.70;71.10
6954;DHT22;3516;47.980;8.808;2022-08-21T21:49:34;24.70;70.40
6954;DHT22;3516;47.980;8.808;2022-08-21T21:52:11;24.70;70.50
6954;DHT22;3516;47.980;8.808;2022-08-21T21:57:37;24.70;70.70
6954;DHT22;3516;47.980;8.808;2022-08-21T22:00:06;24.70;70.80
6954;DHT22;3516;47.980;8.808;2022-08-21T22:02:37;24.80;71.00
6954;DHT22;3516;47.980;8.808;2022-08-21T22:05:09;24.70;71.00
6954;DHT22;3516;47.980;8.808;2022-08-21T22:07:42;24.80;71.40
6954;DHT22;3516;47.980;8.808;2022-08-21T22:10:11;24.80;71.50
6954;DHT22;3516;47.980;8.808;2022-08-21T22:12:44;24.80;71.80
6954;DHT22;3516;47.980;8.808;2022-08-21T22:15:13;24.80;71.90
6954;DHT22;3516;47.980;8.808;2022-08-21T22:17:43;24.80;72.20
6954;DHT22;3516;47.980;8.808;2022-08-21T22:20:12;24.80;72.30
